sensor_id;sensor_type;location;lat;lon;timestamp;pressure;altitude;pressure_sealevel;temperature;humidity
10824;BME280;39116;59.332;18.034;2023-04-21T00:00:13;102215.91;;;9.87;61.96
10824;BME280;39116;59.332;18.034;2023-04-21T00:02:35;102220.69;;;10.01;61.76
10824;BME280;39116;59.332;18.034;2023-04-21T00:04:59;102216.59;;;10.07;60.74
10824;BME280;39116;59.332;18.034;2023-04-21T00:07:23;102218.03;;;9.99;61.88
10824;BME280;39116;59.332;18.034;2023-04-21T00:09:45;102212.56;;;9.91;61.83
10824;BME280;39116;59.332;18.034;2023-04-21T00:12:07;102210.41;;;9.78;64.34
10824;BME280;39116;59.332;18.034;2023-04-21T00:14:29;102203.41;;;9.77;65.11
10824;BME280;39116;59.332;18.034;2023-04-21T00:16:51;102205.28;;;9.81;64.62
10824;BME280;39116;59.332;18.034;2023-04-21T00:19:13;102200.63;;;9.72;65.19
10824;BME280;39116;59.332;18.034;2023-04-21T00:21:35;102204.16;;;9.73;65.87
10824;BME280;39116;59.332;18.034;2023-04-21T00:23:58;102200.81;;;9.77;66.10
10824;BME280;39116;59.332;18.034;2023-04-21T00:26:20;102198.72;;;9.67;66.31
10824;BME280;39116;59.332;18.034;2023-04-21T00:28:42;102203.09;;;9.68;65.86
10824;BME280;39116;59.332;18.034;2023-04-21T00:31:04;102198.13;;;9.50;67.71
10824;BME280;39116;59.332;18.034;2023-04-21T00:33:26;102194.66;;;9.49;67.69
10824;BME280;39116;59.332;18.034;2023-04-21T00:35:48;102191.09;;;9.47;68.24
10824;BME280;39116;59.332;18.034;2023-04-21T00:38:10;102195.06;;;9.62;66.83
10824;BME280;39116;59.332;18.034;2023-04-21T00:40:33;102189.47;;;9.51;66.91
10824;BME280;39116;59.332;18.034;2023-04-21T00:42:55;102200.00;;;9.30;68.16
10824;BME280;39116;59.332;18.034;2023-04-21T00:45:17;102195.03;;;9.36;67.68
10824;BME280;39116;59.332;18.034;2023-04-21T00:47:39;102189.09;;;9.40;67.43
10824;BME280;39116;59.332;18.034;2023-04-21T00:50:02;102181.75;;;9.52;66.37
10824;BME280;39116;59.332;18.034;2023-04-21T00:52:24;102177.56;;;9.32;67.06
10824;BME280;39116;59.332;18.034;2023-04-21T00:54:47;102179.22;;;9.30;67.26
10824;BME280;39116;59.332;18.034;2023-04-21T00:57:10;102179.66;;;9.42;67.00
10824;BME280;39116;59.332;18.034;2023-04-21T00:59:33;102179.75;;;9.45;66.50
10824;BME280;39116;59.332;18.034;2023-04-21T01:01:55;102178.97;;;9.24;68.11
10824;BME280;39116;59.332;18.034;2023-04-21T01:04:17;102178.69;;;9.16;69.33
10824;BME280;39116;59.332;18.034;2023-04-21T01:06:40;102166.97;;;9.03;70.65
10824;BME280;39116;59.332;18.034;2023-04-21T01:09:03;102167.63;;;8.97;71.37
10824;BME280;39116;59.332;18.034;2023-04-21T01:11:25;102176.31;;;8.98;71.16
10824;BME280;39116;59.332;18.034;2023-04-21T01:13:51;102165.97;;;8.77;73.65
10824;BME280;39116;59.332;18.034;2023-04-21T01:16:15;102166.03;;;8.56;76.29
10824;BME280;39116;59.332;18.034;2023-04-21T01:18:38;102166.03;;;8.78;73.37
10824;BME280;39116;59.332;18.034;2023-04-21T01:21:00;102161.81;;;8.58;74.54
10824;BME280;39116;59.332;18.034;2023-04-21T01:23:25;102161.78;;;8.81;73.71
10824;BME280;39116;59.332;18.034;2023-04-21T01:25:47;102167.16;;;8.41;76.48
10824;BME280;39116;59.332;18.034;2023-04-21T01:28:09;102166.88;;;8.55;75.73
10824;BME280;39116;59.332;18.034;2023-04-21T01:30:30;102158.59;;;8.43;77.05
10824;BME280;39116;59.332;18.034;2023-04-21T01:32:53;102158.59;;;8.43;77.52
10824;BME280;39116;59.332;18.034;2023-04-21T01:35:15;102160.44;;;8.24;79.45
10824;BME280;39116;59.332;18.034;2023-04-21T01:37:37;102157.28;;;8.54;76.23
10824;BME280;39116;59.332;18.034;2023-04-21T01:40:02;102162.53;;;8.34;77.84
10824;BME280;39116;59.332;18.034;2023-04-21T01:42:27;102149.72;;;8.37;77.90
10824;BME280;39116;59.332;18.034;2023-04-21T01:44:50;102144.50;;;8.37;77.08
10824;BME280;39116;59.332;18.034;2023-04-21T01:47:14;102151.63;;;8.20;78.54
10824;BME280;39116;59.332;18.034;2023-04-21T01:49:36;102155.91;;;8.20;79.03
10824;BME280;39116;59.332;18.034;2023-04-21T01:51:58;102142.28;;;8.24;78.15
10824;BME280;39116;59.332;18.034;2023-04-21T01:54:19;102134.00;;;8.55;74.15
10824;BME280;39116;59.332;18.034;2023-04-21T01:56:43;102135.47;;;8.49;75.87
10824;BME280;39116;59.332;18.034;2023-04-21T01:59:05;102143.38;;;8.52;74.35
10824;BME280;39116;59.332;18.034;2023-04-21T02:01:27;102135.66;;;8.32;75.98
10824;BME280;39116;59.332;18.034;2023-04-21T02:03:48;102129.66;;;8.33;75.87
10824;BME280;39116;59.332;18.034;2023-04-21T02:06:10;102135.94;;;8.17;78.06
10824;BME280;39116;59.332;18.034;2023-04-21T02:08:33;102134.47;;;8.45;74.94
10824;BME280;39116;59.332;18.034;2023-04-21T02:10:55;102130.19;;;8.46;74.56
10824;BME280;39116;59.332;18.034;2023-04-21T02:13:18;102129.69;;;8.56;74.64
10824;BME280;39116;59.332;18.034;2023-04-21T02:15:40;102126.94;;;8.51;73.59
10824;BME280;39116;59.332;18.034;2023-04-21T02:18:02;102131.94;;;8.47;74.88
10824;BME280;39116;59.332;18.034;2023-04-21T02:20:24;102128.00;;;8.35;75.33
10824;BME280;39116;59.332;18.034;2023-04-21T02:22:46;102134.84;;;8.54;74.70
10824;BME280;39116;59.332;18.034;2023-04-21T02:25:08;102130.38;;;8.29;77.65
10824;BME280;39116;59.332;18.034;2023-04-21T02:27:30;102122.91;;;8.16;78.71
10824;BME280;39116;59.332;18.034;2023-04-21T02:29:54;102132.97;;;8.29;78.85
10824;BME280;39116;59.332;18.034;2023-04-21T02:32:15;102130.81;;;8.19;78.99
10824;BME280;39116;59.332;18.034;2023-04-21T02:34:37;102121.69;;;8.29;79.62
10824;BME280;39116;59.332;18.034;2023-04-21T02:37:01;102091.78;;;7.95;80.94
10824;BME280;39116;59.332;18.034;2023-04-21T02:39:23;102121.22;;;8.39;79.93
10824;BME280;39116;59.332;18.034;2023-04-21T02:41:45;102040.88;;;7.74;81.04
10824;BME280;39116;59.332;18.034;2023-04-21T02:44:07;102131.91;;;8.24;82.13
10824;BME280;39116;59.332;18.034;2023-04-21T02:46:30;102119.66;;;8.43;80.57
10824;BME280;39116;59.332;18.034;2023-04-21T02:48:52;102120.31;;;8.59;78.50
10824;BME280;39116;59.332;18.034;2023-04-21T02:51:14;102058.53;;;8.28;77.30
10824;BME280;39116;59.332;18.034;2023-04-21T02:53:36;102090.59;;;8.51;76.86
10824;BME280;39116;59.332;18.034;2023-04-21T02:55:58;102119.19;;;8.75;78.83
10824;BME280;39116;59.332;18.034;2023-04-21T02:58:22;102117.38;;;8.73;80.90
10824;BME280;39116;59.332;18.034;2023-04-21T03:00:44;102123.31;;;8.70;85.04
10824;BME280;39116;59.332;18.034;2023-04-21T03:03:07;102123.56;;;8.76;85.33
10824;BME280;39116;59.332;18.034;2023-04-21T03:05:29;102125.25;;;8.10;87.19
10824;BME280;39116;59.332;18.034;2023-04-21T03:07:51;102128.44;;;8.02;89.15
10824;BME280;39116;59.332;18.034;2023-04-21T03:10:13;102121.88;;;8.33;85.68
10824;BME280;39116;59.332;18.034;2023-04-21T03:12:35;102128.69;;;8.52;84.46
10824;BME280;39116;59.332;18.034;2023-04-21T03:14:57;102123.81;;;8.60;83.51
10824;BME280;39116;59.332;18.034;2023-04-21T03:17:19;102123.31;;;8.70;82.61
10824;BME280;39116;59.332;18.034;2023-04-21T03:19:42;102116.44;;;8.71;82.83
10824;BME280;39116;59.332;18.034;2023-04-21T03:22:05;102123.31;;;8.70;83.09
10824;BME280;39116;59.332;18.034;2023-04-21T03:24:26;102122.50;;;8.71;83.21
10824;BME280;39116;59.332;18.034;2023-04-21T03:26:49;102128.81;;;8.78;82.83
10824;BME280;39116;59.332;18.034;2023-04-21T03:29:12;102118.38;;;8.76;83.91
10824;BME280;39116;59.332;18.034;2023-04-21T03:31:34;102121.09;;;8.79;84.70
10824;BME280;39116;59.332;18.034;2023-04-21T03:33:56;102123.38;;;8.72;85.64
10824;BME280;39116;59.332;18.034;2023-04-21T03:36:19;102122.84;;;8.81;84.18
10824;BME280;39116;59.332;18.034;2023-04-21T03:38:41;102116.97;;;8.85;82.95
10824;BME280;39116;59.332;18.034;2023-04-21T03:41:03;102114.72;;;8.71;82.12
10824;BME280;39116;59.332;18.034;2023-04-21T03:43:25;102113.38;;;8.81;82.01
10824;BME280;39116;59.332;18.034;2023-04-21T03:45:47;102110.09;;;8.87;81.22
10824;BME280;39116;59.332;18.034;2023-04-21T03:48:09;102113.50;;;8.86;82.29
10824;BME280;39116;59.332;18.034;2023-04-21T03:50:30;102115.69;;;8.51;85.26
10824;BME280;39116;59.332;18.034;2023-04-21T03:52:54;102113.00;;;8.72;84.68
10824;BME280;39116;59.332;18.034;2023-04-21T03:55:16;102110.50;;;8.75;84.06
10824;BME280;39116;59.332;18.034;2023-04-21T03:57:38;102113.38;;;8.83;83.70
10824;BME280;39116;59.332;18.034;2023-04-21T04:00:01;102109.84;;;8.81;84.45
10824;BME280;39116;59.332;18.034;2023-04-21T04:02:24;102117.59;;;8.79;85.64
10824;BME280;39116;59.332;18.034;2023-04-21T04:04:46;102115.00;;;8.79;86.82
10824;BME280;39116;59.332;18.034;2023-04-21T04:07:08;102115.59;;;8.72;87.31
10824;BME280;39116;59.332;18.034;2023-04-21T04:09:31;102107.88;;;8.51;89.08
10824;BME280;39116;59.332;18.034;2023-04-21T04:11:53;102112.38;;;8.34;90.46
10824;BME280;39116;59.332;18.034;2023-04-21T04:14:15;102116.19;;;8.42;89.22
10824;BME280;39116;59.332;18.034;2023-04-21T04:16:37;102118.22;;;8.28;89.17
10824;BME280;39116;59.332;18.034;2023-04-21T04:18:59;102110.16;;;8.43;86.78
10824;BME280;39116;59.332;18.034;2023-04-21T04:21:21;102111.19;;;8.69;85.34
10824;BME280;39116;59.332;18.034;2023-04-21T04:23:43;102106.13;;;8.74;87.29
10824;BME280;39116;59.332;18.034;2023-04-21T04:26:06;102096.72;;;8.76;83.05
10824;BME280;39116;59.332;18.034;2023-04-21T04:28:28;102104.66;;;8.81;82.84
10824;BME280;39116;59.332;18.034;2023-04-21T04:30:50;102097.34;;;8.70;81.19
10824;BME280;39116;59.332;18.034;2023-04-21T04:33:12;102102.78;;;8.76;80.66
10824;BME280;39116;59.332;18.034;2023-04-21T04:35:34;102102.19;;;8.61;82.43
10824;BME280;39116;59.332;18.034;2023-04-21T04:37:56;102098.41;;;8.75;79.44
10824;BME280;39116;59.332;18.034;2023-04-21T04:40:18;102071.06;;;8.61;77.78
10824;BME280;39116;59.332;18.034;2023-04-21T04:42:43;102095.47;;;8.66;76.38
10824;BME280;39116;59.332;18.034;2023-04-21T04:45:07;102099.84;;;8.67;76.58
10824;BME280;39116;59.332;18.034;2023-04-21T04:47:30;102093.78;;;8.91;78.75
10824;BME280;39116;59.332;18.034;2023-04-21T04:49:53;102090.38;;;8.92;77.47
10824;BME280;39116;59.332;18.034;2023-04-21T04:52:15;102090.72;;;9.01;75.57
10824;BME280;39116;59.332;18.034;2023-04-21T04:54:36;102086.22;;;8.97;74.50
10824;BME280;39116;59.332;18.034;2023-04-21T04:56:58;102092.31;;;8.97;76.30
10824;BME280;39116;59.332;18.034;2023-04-21T04:59:22;102091.97;;;9.12;71.08
10824;BME280;39116;59.332;18.034;2023-04-21T05:01:44;102094.41;;;9.08;70.47
10824;BME280;39116;59.332;18.034;2023-04-21T05:04:06;102051.44;;;8.92;70.03
10824;BME280;39116;59.332;18.034;2023-04-21T05:06:28;102089.75;;;9.23;69.21
10824;BME280;39116;59.332;18.034;2023-04-21T05:08:50;102084.63;;;9.25;65.51
10824;BME280;39116;59.332;18.034;2023-04-21T05:11:12;102085.31;;;9.45;62.92
10824;BME280;39116;59.332;18.034;2023-04-21T05:13:34;102088.84;;;9.47;62.35
10824;BME280;39116;59.332;18.034;2023-04-21T05:15:58;102073.91;;;9.41;65.16
10824;BME280;39116;59.332;18.034;2023-04-21T05:18:22;102089.63;;;9.44;64.92
10824;BME280;39116;59.332;18.034;2023-04-21T05:20:44;102089.09;;;9.54;65.88
10824;BME280;39116;59.332;18.034;2023-04-21T05:23:06;102092.03;;;9.64;70.42
10824;BME280;39116;59.332;18.034;2023-04-21T05:25:28;102092.22;;;9.70;67.14
10824;BME280;39116;59.332;18.034;2023-04-21T05:27:50;102095.00;;;9.76;69.95
10824;BME280;39116;59.332;18.034;2023-04-21T05:30:12;102093.41;;;9.54;72.46
10824;BME280;39116;59.332;18.034;2023-04-21T05:32:36;102090.94;;;9.84;75.66
10824;BME280;39116;59.332;18.034;2023-04-21T05:34:57;102088.22;;;10.07;73.87
10824;BME280;39116;59.332;18.034;2023-04-21T05:37:20;102094.34;;;10.09;77.05
10824;BME280;39116;59.332;18.034;2023-04-21T05:39:42;102095.16;;;10.08;77.51
10824;BME280;39116;59.332;18.034;2023-04-21T05:42:04;102089.56;;;9.96;79.69
10824;BME280;39116;59.332;18.034;2023-04-21T05:44:26;102079.78;;;10.14;82.08
10824;BME280;39116;59.332;18.034;2023-04-21T05:46:48;102080.09;;;10.25;82.05
10824;BME280;39116;59.332;18.034;2023-04-21T05:49:11;102086.88;;;10.47;82.82
10824;BME280;39116;59.332;18.034;2023-04-21T05:51:33;102075.16;;;10.61;82.40
10824;BME280;39116;59.332;18.034;2023-04-21T05:53:55;102078.72;;;10.65;83.47
10824;BME280;39116;59.332;18.034;2023-04-21T05:56:17;102084.53;;;10.56;85.79
10824;BME280;39116;59.332;18.034;2023-04-21T05:58:39;102080.41;;;10.63;88.33
10824;BME280;39116;59.332;18.034;2023-04-21T06:01:01;102082.56;;;10.78;88.12
10824;BME280;39116;59.332;18.034;2023-04-21T06:03:23;102078.53;;;10.89;87.53
10824;BME280;39116;59.332;18.034;2023-04-21T06:05:46;102076.31;;;11.03;88.66
10824;BME280;39116;59.332;18.034;2023-04-21T06:08:08;102076.22;;;11.00;88.47
10824;BME280;39116;59.332;18.034;2023-04-21T06:10:30;102076.28;;;11.01;91.33
10824;BME280;39116;59.332;18.034;2023-04-21T06:12:52;102074.78;;;11.10;91.06
10824;BME280;39116;59.332;18.034;2023-04-21T06:15:14;102068.28;;;11.27;90.45
10824;BME280;39116;59.332;18.034;2023-04-21T06:17:36;102073.66;;;11.33;91.76
10824;BME280;39116;59.332;18.034;2023-04-21T06:19:58;102056.50;;;11.41;92.19
10824;BME280;39116;59.332;18.034;2023-04-21T06:22:21;102063.63;;;11.49;92.01
10824;BME280;39116;59.332;18.034;2023-04-21T06:24:43;102061.16;;;11.55;91.88
10824;BME280;39116;59.332;18.034;2023-04-21T06:27:09;102062.88;;;11.53;93.07
10824;BME280;39116;59.332;18.034;2023-04-21T06:29:31;102061.31;;;11.61;92.89
10824;BME280;39116;59.332;18.034;2023-04-21T06:31:53;102053.38;;;11.56;93.79
10824;BME280;39116;59.332;18.034;2023-04-21T06:34:15;102059.00;;;11.73;94.25
10824;BME280;39116;59.332;18.034;2023-04-21T06:36:37;102055.88;;;11.87;92.71
10824;BME280;39116;59.332;18.034;2023-04-21T06:39:00;102052.00;;;12.07;91.36
10824;BME280;39116;59.332;18.034;2023-04-21T06:41:24;102044.19;;;12.07;92.25
10824;BME280;39116;59.332;18.034;2023-04-21T06:43:46;102046.16;;;12.17;92.09
10824;BME280;39116;59.332;18.034;2023-04-21T06:46:08;102047.00;;;12.16;93.01
10824;BME280;39116;59.332;18.034;2023-04-21T06:48:30;102049.25;;;12.39;90.87
10824;BME280;39116;59.332;18.034;2023-04-21T06:50:52;102035.47;;;12.46;90.68
10824;BME280;39116;59.332;18.034;2023-04-21T06:53:14;102041.56;;;12.47;90.56
10824;BME280;39116;59.332;18.034;2023-04-21T06:55:38;102033.13;;;12.58;90.93
10824;BME280;39116;59.332;18.034;2023-04-21T06:58:00;102029.53;;;12.53;90.90
10824;BME280;39116;59.332;18.034;2023-04-21T07:00:22;102032.13;;;12.53;92.15
10824;BME280;39116;59.332;18.034;2023-04-21T07:02:44;102028.97;;;12.70;90.72
10824;BME280;39116;59.332;18.034;2023-04-21T07:05:06;102031.81;;;12.80;91.48
10824;BME280;39116;59.332;18.034;2023-04-21T07:07:28;102032.88;;;12.90;91.38
10824;BME280;39116;59.332;18.034;2023-04-21T07:09:50;102029.53;;;12.97;89.93
10824;BME280;39116;59.332;18.034;2023-04-21T07:12:14;102026.13;;;13.02;90.29
10824;BME280;39116;59.332;18.034;2023-04-21T07:14:35;102022.81;;;13.12;90.01
10824;BME280;39116;59.332;18.034;2023-04-21T07:16:57;102020.22;;;13.13;89.49
10824;BME280;39116;59.332;18.034;2023-04-21T07:19:19;102016.19;;;13.31;89.05
10824;BME280;39116;59.332;18.034;2023-04-21T07:21:41;102014.50;;;13.34;88.23
10824;BME280;39116;59.332;18.034;2023-04-21T07:24:04;102013.59;;;13.31;88.71
10824;BME280;39116;59.332;18.034;2023-04-21T07:26:26;102018.19;;;13.46;88.79
10824;BME280;39116;59.332;18.034;2023-04-21T07:28:49;102014.09;;;13.62;87.29
10824;BME280;39116;59.332;18.034;2023-04-21T07:31:12;102004.47;;;13.59;87.96
10824;BME280;39116;59.332;18.034;2023-04-21T07:33:34;102009.84;;;13.68;87.45
10824;BME280;39116;59.332;18.034;2023-04-21T07:35:56;102011.78;;;13.82;86.41
10824;BME280;39116;59.332;18.034;2023-04-21T07:38:18;102008.38;;;13.86;84.85
10824;BME280;39116;59.332;18.034;2023-04-21T07:40:40;102001.53;;;13.97;85.80
10824;BME280;39116;59.332;18.034;2023-04-21T07:43:02;102000.75;;;14.04;85.00
10824;BME280;39116;59.332;18.034;2023-04-21T07:45:25;101997.31;;;14.07;85.47
10824;BME280;39116;59.332;18.034;2023-04-21T07:47:47;101995.56;;;14.06;86.14
10824;BME280;39116;59.332;18.034;2023-04-21T07:50:09;101989.47;;;14.08;86.34
10824;BME280;39116;59.332;18.034;2023-04-21T07:52:31;101986.28;;;14.31;84.44
10824;BME280;39116;59.332;18.034;2023-04-21T07:54:53;101985.41;;;14.33;83.97
10824;BME280;39116;59.332;18.034;2023-04-21T07:57:15;101984.72;;;14.45;83.69
10824;BME280;39116;59.332;18.034;2023-04-21T07:59:37;101978.59;;;14.48;82.69
10824;BME280;39116;59.332;18.034;2023-04-21T08:02:00;101971.81;;;14.62;82.16
10824;BME280;39116;59.332;18.034;2023-04-21T08:04:22;101976.19;;;14.62;82.08
10824;BME280;39116;59.332;18.034;2023-04-21T08:06:44;101966.63;;;14.65;81.79
10824;BME280;39116;59.332;18.034;2023-04-21T08:09:06;101966.84;;;14.87;80.87
10824;BME280;39116;59.332;18.034;2023-04-21T08:11:28;101967.81;;;14.97;80.41
10824;BME280;39116;59.332;18.034;2023-04-21T08:13:50;101968.78;;;15.08;79.29
10824;BME280;39116;59.332;18.034;2023-04-21T08:16:12;101957.47;;;15.12;78.55
10824;BME280;39116;59.332;18.034;2023-04-21T08:18:36;101947.84;;;15.13;78.94
10824;BME280;39116;59.332;18.034;2023-04-21T08:20:57;101950.47;;;15.11;77.94
10824;BME280;39116;59.332;18.034;2023-04-21T08:23:19;101951.38;;;15.16;78.06
10824;BME280;39116;59.332;18.034;2023-04-21T08:25:41;101955.84;;;15.26;77.85
10824;BME280;39116;59.332;18.034;2023-04-21T08:28:04;101954.88;;;15.17;77.67
10824;BME280;39116;59.332;18.034;2023-04-21T08:30:26;101947.88;;;15.16;79.81
10824;BME280;39116;59.332;18.034;2023-04-21T08:32:48;101947.94;;;15.22;77.72
10824;BME280;39116;59.332;18.034;2023-04-21T08:35:12;101945.38;;;15.34;77.13
10824;BME280;39116;59.332;18.034;2023-04-21T08:37:35;101942.69;;;15.25;77.44
10824;BME280;39116;59.332;18.034;2023-04-21T08:39:57;101941.97;;;15.40;77.87
10824;BME280;39116;59.332;18.034;2023-04-21T08:42:19;101937.66;;;15.53;77.30
10824;BME280;39116;59.332;18.034;2023-04-21T08:44:41;101940.38;;;15.65;76.08
10824;BME280;39116;59.332;18.034;2023-04-21T08:47:03;101938.59;;;15.62;75.66
10824;BME280;39116;59.332;18.034;2023-04-21T08:49:28;101935.16;;;15.73;75.44
10824;BME280;39116;59.332;18.034;2023-04-21T08:51:52;101931.66;;;15.71;75.73
10824;BME280;39116;59.332;18.034;2023-04-21T08:54:14;101926.50;;;15.80;74.84
10824;BME280;39116;59.332;18.034;2023-04-21T08:56:36;101931.56;;;15.55;75.70
10824;BME280;39116;59.332;18.034;2023-04-21T08:58:59;101932.47;;;15.60;76.19
10824;BME280;39116;59.332;18.034;2023-04-21T09:01:21;101919.53;;;15.88;75.68
10824;BME280;39116;59.332;18.034;2023-04-21T09:03:43;101923.09;;;16.02;73.47
10824;BME280;39116;59.332;18.034;2023-04-21T09:06:07;101922.94;;;15.75;74.52
10824;BME280;39116;59.332;18.034;2023-04-21T09:08:31;101925.53;;;15.69;75.19
10824;BME280;39116;59.332;18.034;2023-04-21T09:10:53;101924.75;;;15.82;74.00
10824;BME280;39116;59.332;18.034;2023-04-21T09:13:16;101926.56;;;15.98;73.26
10824;BME280;39116;59.332;18.034;2023-04-21T09:15:39;101919.41;;;15.73;74.38
10824;BME280;39116;59.332;18.034;2023-04-21T09:18:01;101915.28;;;16.19;70.62
10824;BME280;39116;59.332;18.034;2023-04-21T09:20:24;101916.09;;;16.01;72.07
10824;BME280;39116;59.332;18.034;2023-04-21T09:22:47;101914.47;;;16.45;70.93
10824;BME280;39116;59.332;18.034;2023-04-21T09:25:14;101913.63;;;16.63;67.75
10824;BME280;39116;59.332;18.034;2023-04-21T09:27:37;101903.97;;;16.56;67.08
10824;BME280;39116;59.332;18.034;2023-04-21T09:30:02;101908.44;;;16.86;64.97
10824;BME280;39116;59.332;18.034;2023-04-21T09:32:25;101895.28;;;16.82;65.05
10824;BME280;39116;59.332;18.034;2023-04-21T09:34:48;101897.94;;;16.91;63.03
10824;BME280;39116;59.332;18.034;2023-04-21T09:37:11;101898.81;;;16.96;62.16
10824;BME280;39116;59.332;18.034;2023-04-21T09:39:33;101904.91;;;16.76;64.69
10824;BME280;39116;59.332;18.034;2023-04-21T09:41:57;101902.28;;;16.76;63.97
10824;BME280;39116;59.332;18.034;2023-04-21T09:44:19;101898.75;;;16.62;64.63
10824;BME280;39116;59.332;18.034;2023-04-21T09:46:42;101890.00;;;16.60;64.82
10824;BME280;39116;59.332;18.034;2023-04-21T09:49:04;101891.72;;;16.55;63.03
10824;BME280;39116;59.332;18.034;2023-04-21T09:51:27;101889.06;;;16.49;60.02
10824;BME280;39116;59.332;18.034;2023-04-21T09:53:52;101883.84;;;16.53;59.65
10824;BME280;39116;59.332;18.034;2023-04-21T09:56:20;101881.22;;;16.53;59.05
10824;BME280;39116;59.332;18.034;2023-04-21T09:58:46;101875.09;;;16.70;58.99
10824;BME280;39116;59.332;18.034;2023-04-21T10:01:08;101875.09;;;16.80;56.64
10824;BME280;39116;59.332;18.034;2023-04-21T10:03:31;101874.25;;;16.97;55.89
10824;BME280;39116;59.332;18.034;2023-04-21T10:05:52;101862.81;;;17.26;55.24
10824;BME280;39116;59.332;18.034;2023-04-21T10:08:15;101854.94;;;17.32;54.86
10824;BME280;39116;59.332;18.034;2023-04-21T10:10:38;101855.75;;;17.49;55.51
10824;BME280;39116;59.332;18.034;2023-04-21T10:13:00;101862.75;;;17.64;54.39
10824;BME280;39116;59.332;18.034;2023-04-21T10:15:36;101857.44;;;17.67;53.68
10824;BME280;39116;59.332;18.034;2023-04-21T10:18:18;101864.50;;;17.62;53.72
10824;BME280;39116;59.332;18.034;2023-04-21T10:20:50;101819.75;;;17.54;54.23
10824;BME280;39116;59.332;18.034;2023-04-21T10:23:27;101843.50;;;17.39;54.91
10824;BME280;39116;59.332;18.034;2023-04-21T10:25:50;101847.88;;;17.37;55.89
10824;BME280;39116;59.332;18.034;2023-04-21T10:28:11;101843.41;;;17.68;54.94
10824;BME280;39116;59.332;18.034;2023-04-21T10:30:39;101840.78;;;17.67;54.21
10824;BME280;39116;59.332;18.034;2023-04-21T10:33:02;101825.97;;;17.29;55.71
10824;BME280;39116;59.332;18.034;2023-04-21T10:35:24;101843.53;;;17.25;54.86
10824;BME280;39116;59.332;18.034;2023-04-21T10:37:47;101824.25;;;17.22;54.38
10824;BME280;39116;59.332;18.034;2023-04-21T10:40:32;101830.28;;;17.62;53.11
10824;BME280;39116;59.332;18.034;2023-04-21T10:42:54;101832.88;;;17.68;53.32
10824;BME280;39116;59.332;18.034;2023-04-21T10:45:17;101818.94;;;17.34;54.64
10824;BME280;39116;59.332;18.034;2023-04-21T10:47:45;101815.28;;;17.75;53.14
10824;BME280;39116;59.332;18.034;2023-04-21T10:50:20;101794.38;;;17.35;53.55
10824;BME280;39116;59.332;18.034;2023-04-21T10:52:44;101817.97;;;17.56;53.81
10824;BME280;39116;59.332;18.034;2023-04-21T10:55:08;101815.31;;;17.69;52.79
10824;BME280;39116;59.332;18.034;2023-04-21T10:57:33;101821.56;;;17.31;53.45
10824;BME280;39116;59.332;18.034;2023-04-21T10:59:55;101820.69;;;17.41;52.63
10824;BME280;39116;59.332;18.034;2023-04-21T11:02:17;101809.97;;;17.84;51.68
10824;BME280;39116;59.332;18.034;2023-04-21T11:04:41;101802.19;;;17.63;51.18
10824;BME280;39116;59.332;18.034;2023-04-21T11:07:09;101800.28;;;17.96;49.44
10824;BME280;39116;59.332;18.034;2023-04-21T11:09:31;101793.31;;;17.82;48.77
10824;BME280;39116;59.332;18.034;2023-04-21T11:11:57;101791.53;;;17.81;48.61
10824;BME280;39116;59.332;18.034;2023-04-21T11:14:19;101794.06;;;18.09;49.35
10824;BME280;39116;59.332;18.034;2023-04-21T11:16:42;101794.09;;;18.03;48.91
10824;BME280;39116;59.332;18.034;2023-04-21T11:19:04;101800.97;;;18.27;48.16
10824;BME280;39116;59.332;18.034;2023-04-21T11:21:28;101795.94;;;17.85;48.69
10824;BME280;39116;59.332;18.034;2023-04-21T11:23:52;101796.72;;;18.04;48.14
10824;BME280;39116;59.332;18.034;2023-04-21T11:33:03;101784.97;;;18.50;46.05
10824;BME280;39116;59.332;18.034;2023-04-21T11:35:26;101788.59;;;18.40;46.25
10824;BME280;39116;59.332;18.034;2023-04-21T11:37:50;101775.41;;;18.40;46.49
10824;BME280;39116;59.332;18.034;2023-04-21T11:40:12;101771.81;;;18.47;46.85
10824;BME280;39116;59.332;18.034;2023-04-21T11:42:34;101776.34;;;18.28;46.74
10824;BME280;39116;59.332;18.034;2023-04-21T11:44:57;101673.03;;;17.86;46.64
10824;BME280;39116;59.332;18.034;2023-04-21T11:47:22;101734.69;;;17.46;48.60
10824;BME280;39116;59.332;18.034;2023-04-21T11:49:46;101770.34;;;18.09;47.30
10824;BME280;39116;59.332;18.034;2023-04-21T11:52:08;101766.84;;;18.07;47.75
10824;BME280;39116;59.332;18.034;2023-04-21T11:54:31;101758.81;;;18.22;46.77
10824;BME280;39116;59.332;18.034;2023-04-21T11:56:53;101771.13;;;18.22;46.31
10824;BME280;39116;59.332;18.034;2023-04-21T11:59:17;101773.22;;;17.66;47.53
10824;BME280;39116;59.332;18.034;2023-04-21T12:01:42;101754.59;;;18.00;47.26
10824;BME280;39116;59.332;18.034;2023-04-21T12:04:05;101748.69;;;18.77;45.25
10824;BME280;39116;59.332;18.034;2023-04-21T12:06:26;101744.06;;;19.02;44.86
10824;BME280;39116;59.332;18.034;2023-04-21T12:08:54;101747.84;;;19.54;43.28
10824;BME280;39116;59.332;18.034;2023-04-21T12:11:18;101752.19;;;18.82;43.76
10824;BME280;39116;59.332;18.034;2023-04-21T12:13:40;101741.69;;;18.73;43.67
10824;BME280;39116;59.332;18.034;2023-04-21T12:16:02;101746.03;;;18.81;43.11
10824;BME280;39116;59.332;18.034;2023-04-21T12:18:26;101739.09;;;18.69;42.27
10824;BME280;39116;59.332;18.034;2023-04-21T12:20:49;101732.78;;;18.86;42.84
10824;BME280;39116;59.332;18.034;2023-04-21T12:23:12;101729.78;;;19.18;42.57
10824;BME280;39116;59.332;18.034;2023-04-21T12:25:33;101728.78;;;19.30;41.54
10824;BME280;39116;59.332;18.034;2023-04-21T12:27:58;101726.19;;;19.25;41.75